Etusivu
METAR-TAF:

METAR-TAF

Lentoasemat :

Røros, Norja

Leveyspiiri: 62-35N, Pituuspiiri: 011-21E, korkeus merenpinnasta: 626 m

Tämänhetkinen sää

Tämä raportti tehtiin 21 minuuttia sitten, kello 23.20 UTC
Tuuli 4 kn lounaasta
Lämpötila -8°C
Kosteus 100%
Ilmanpaine 1034 hPa
Näkyvyys 10 km tai enemmän

METAR: ENRO 202320Z AUTO 22004KT 9999NDV OVC003/// M08/M08 Q1034

Aika: 00:41 (23:41 UTC)

Sääennuste

Tämä raportti tehtiin 12 tuntia ja 41 minuuttia sitten, kello 11.00 UTC
Ennuste voimassa 20. päivästä klo 12 UTC - 20. päivään klo 19 UTC
Tuuli 5 kn eri suunnista
Näkyvyys: 8000 m
Pilvistä 500 ft:n korkeudessa
Ajoittain
20. päivästä klo 12 UTC - 20. päivään klo 19 UTC
Näkyvyys: 0800 m
200 ft:n korkeudessa
jäätävää sumua

TAF: ENRO 201100Z 2012/2019 VRB05KT 8000 OVC005 TEMPO 2012/2019 0800 FZFG VV002

Säähavainnot ja -ennusteet yli 4000 lentoasemalta (METAR- ja TAF-raportit).

Käytössä olevat sääasemat on merkitty karttaan keltaisilla ja punaisilla pisteillä.

Aseta hiiri pisteen päälle nähdäksesi sääaseman nimen.

Klikkaa sitten nähdäksesi säähavainnot ja -ennusteet.

Kartan vaihtaminen: klikkaa mustalla rastilla varustettuja vihreitä pisteitä, niin voit zoomata sisään; viivalla varustettua vihreää pistettä, niin voit zoomata ulos tai vihreitä nuolia, niin pääset viereisille kartoille.


METAR-TAF: